sensor_id;sensor_type;location;lat;lon;timestamp;P1;durP1;ratioP1;P2;durP2;ratioP2
537;SDS011;254;48.524;8.926;2022-12-18T00:00:04;31.8;;;17.5;;
537;SDS011;254;48.524;8.926;2022-12-18T00:02:01;26.5;;;16.0;;
537;SDS011;254;48.524;8.926;2022-12-18T00:03:02;30.7;;;16.7;;
537;SDS011;254;48.524;8.926;2022-12-18T00:04:03;31.3;;;18.0;;
537;SDS011;254;48.524;8.926;2022-12-18T00:05:02;31.6;;;17.6;;
537;SDS011;254;48.524;8.926;2022-12-18T00:06:02;26.5;;;17.1;;
537;SDS011;254;48.524;8.926;2022-12-18T00:07:02;29.3;;;17.2;;
537;SDS011;254;48.524;8.926;2022-12-18T00:08:02;25.8;;;17.3;;
537;SDS011;254;48.524;8.926;2022-12-18T00:09:03;28.6;;;17.0;;
537;SDS011;254;48.524;8.926;2022-12-18T00:10:03;34.7;;;18.3;;
537;SDS011;254;48.524;8.926;2022-12-18T00:11:03;29.5;;;18.6;;
537;SDS011;254;48.524;8.926;2022-12-18T00:12:02;31.2;;;18.5;;
537;SDS011;254;48.524;8.926;2022-12-18T00:13:02;30.2;;;17.8;;
537;SDS011;254;48.524;8.926;2022-12-18T00:14:02;31.0;;;18.8;;
537;SDS011;254;48.524;8.926;2022-12-18T00:15:02;30.8;;;17.8;;
537;SDS011;254;48.524;8.926;2022-12-18T00:16:03;28.9;;;18.0;;
537;SDS011;254;48.524;8.926;2022-12-18T00:17:02;27.1;;;17.8;;
537;SDS011;254;48.524;8.926;2022-12-18T00:18:02;28.9;;;17.5;;
537;SDS011;254;48.524;8.926;2022-12-18T00:19:02;31.0;;;18.9;;
537;SDS011;254;48.524;8.926;2022-12-18T00:20:03;35.5;;;19.9;;
537;SDS011;254;48.524;8.926;2022-12-18T00:21:03;33.7;;;18.8;;
537;SDS011;254;48.524;8.926;2022-12-18T00:22:02;31.3;;;18.7;;
537;SDS011;254;48.524;8.926;2022-12-18T00:23:02;32.5;;;17.3;;
537;SDS011;254;48.524;8.926;2022-12-18T00:24:02;28.8;;;17.5;;
537;SDS011;254;48.524;8.926;2022-12-18T00:25:02;28.2;;;17.0;;
537;SDS011;254;48.524;8.926;2022-12-18T00:26:03;33.6;;;18.3;;
537;SDS011;254;48.524;8.926;2022-12-18T00:27:02;28.0;;;18.4;;
537;SDS011;254;48.524;8.926;2022-12-18T00:28:03;31.6;;;21.3;;
537;SDS011;254;48.524;8.926;2022-12-18T00:29:04;30.0;;;18.3;;
537;SDS011;254;48.524;8.926;2022-12-18T00:30:04;32.7;;;19.1;;
537;SDS011;254;48.524;8.926;2022-12-18T00:31:02;29.6;;;17.6;;
537;SDS011;254;48.524;8.926;2022-12-18T00:32:03;30.0;;;18.1;;
537;SDS011;254;48.524;8.926;2022-12-18T00:33:02;35.4;;;19.1;;
537;SDS011;254;48.524;8.926;2022-12-18T00:34:02;32.3;;;18.7;;
537;SDS011;254;48.524;8.926;2022-12-18T00:35:03;30.1;;;18.2;;
537;SDS011;254;48.524;8.926;2022-12-18T00:36:02;30.2;;;17.4;;
537;SDS011;254;48.524;8.926;2022-12-18T00:37:02;30.3;;;17.7;;
537;SDS011;254;48.524;8.926;2022-12-18T00:38:02;31.7;;;17.3;;
537;SDS011;254;48.524;8.926;2022-12-18T00:39:03;30.3;;;17.6;;
537;SDS011;254;48.524;8.926;2022-12-18T00:40:03;31.2;;;17.3;;
537;SDS011;254;48.524;8.926;2022-12-18T00:41:02;31.8;;;17.0;;
537;SDS011;254;48.524;8.926;2022-12-18T00:42:02;25.2;;;15.3;;
537;SDS011;254;48.524;8.926;2022-12-18T00:43:02;27.0;;;14.1;;
537;SDS011;254;48.524;8.926;2022-12-18T00:44:03;21.7;;;13.2;;
537;SDS011;254;48.524;8.926;2022-12-18T00:45:02;23.3;;;13.0;;
537;SDS011;254;48.524;8.926;2022-12-18T00:46:02;32.0;;;15.9;;
537;SDS011;254;48.524;8.926;2022-12-18T00:47:02;29.1;;;16.9;;
537;SDS011;254;48.524;8.926;2022-12-18T00:48:02;28.8;;;16.7;;
537;SDS011;254;48.524;8.926;2022-12-18T00:49:03;27.7;;;16.5;;
537;SDS011;254;48.524;8.926;2022-12-18T00:50:02;27.5;;;16.5;;
537;SDS011;254;48.524;8.926;2022-12-18T00:51:03;32.1;;;16.9;;
537;SDS011;254;48.524;8.926;2022-12-18T00:52:02;29.6;;;16.6;;
537;SDS011;254;48.524;8.926;2022-12-18T00:53:02;29.9;;;16.6;;
537;SDS011;254;48.524;8.926;2022-12-18T00:54:02;28.5;;;16.3;;
537;SDS011;254;48.524;8.926;2022-12-18T00:55:03;27.8;;;17.0;;
537;SDS011;254;48.524;8.926;2022-12-18T00:56:03;29.8;;;15.9;;
537;SDS011;254;48.524;8.926;2022-12-18T00:57:02;28.3;;;16.2;;
537;SDS011;254;48.524;8.926;2022-12-18T00:58:03;28.6;;;17.3;;
537;SDS011;254;48.524;8.926;2022-12-18T00:59:02;28.3;;;16.5;;
537;SDS011;254;48.524;8.926;2022-12-18T01:00:02;30.2;;;16.8;;
537;SDS011;254;48.524;8.926;2022-12-18T01:01:03;32.1;;;18.0;;
537;SDS011;254;48.524;8.926;2022-12-18T01:02:03;25.7;;;16.2;;
537;SDS011;254;48.524;8.926;2022-12-18T01:03:01;28.4;;;16.7;;
537;SDS011;254;48.524;8.926;2022-12-18T01:04:02;27.4;;;16.8;;
537;SDS011;254;48.524;8.926;2022-12-18T01:05:03;31.0;;;16.7;;
537;SDS011;254;48.524;8.926;2022-12-18T01:06:05;26.8;;;15.8;;
537;SDS011;254;48.524;8.926;2022-12-18T01:07:03;32.1;;;17.1;;
537;SDS011;254;48.524;8.926;2022-12-18T01:08:02;29.2;;;16.4;;
537;SDS011;254;48.524;8.926;2022-12-18T01:09:02;32.4;;;17.8;;
537;SDS011;254;48.524;8.926;2022-12-18T01:10:03;27.6;;;16.3;;
537;SDS011;254;48.524;8.926;2022-12-18T01:11:06;27.1;;;16.2;;
537;SDS011;254;48.524;8.926;2022-12-18T01:12:03;27.9;;;15.9;;
537;SDS011;254;48.524;8.926;2022-12-18T01:13:02;30.4;;;17.0;;
537;SDS011;254;48.524;8.926;2022-12-18T01:14:02;29.2;;;16.8;;
537;SDS011;254;48.524;8.926;2022-12-18T01:15:03;28.5;;;16.3;;
537;SDS011;254;48.524;8.926;2022-12-18T01:16:02;29.7;;;17.8;;
537;SDS011;254;48.524;8.926;2022-12-18T01:17:02;31.2;;;18.0;;
537;SDS011;254;48.524;8.926;2022-12-18T01:18:02;32.1;;;17.4;;
537;SDS011;254;48.524;8.926;2022-12-18T01:19:02;34.1;;;18.4;;
537;SDS011;254;48.524;8.926;2022-12-18T01:20:02;38.6;;;18.9;;
537;SDS011;254;48.524;8.926;2022-12-18T01:21:05;33.4;;;19.3;;
537;SDS011;254;48.524;8.926;2022-12-18T01:22:02;36.2;;;17.7;;
537;SDS011;254;48.524;8.926;2022-12-18T01:23:03;34.4;;;18.7;;
537;SDS011;254;48.524;8.926;2022-12-18T01:24:01;36.9;;;18.5;;
537;SDS011;254;48.524;8.926;2022-12-18T01:25:02;34.3;;;18.8;;
537;SDS011;254;48.524;8.926;2022-12-18T01:26:05;34.8;;;18.6;;
537;SDS011;254;48.524;8.926;2022-12-18T01:27:02;33.3;;;19.9;;
537;SDS011;254;48.524;8.926;2022-12-18T01:28:03;35.8;;;18.8;;
537;SDS011;254;48.524;8.926;2022-12-18T01:29:02;31.7;;;18.7;;
537;SDS011;254;48.524;8.926;2022-12-18T01:30:03;30.1;;;17.5;;
537;SDS011;254;48.524;8.926;2022-12-18T01:31:18;33.0;;;17.5;;
537;SDS011;254;48.524;8.926;2022-12-18T01:32:02;36.3;;;18.9;;
537;SDS011;254;48.524;8.926;2022-12-18T01:33:03;31.0;;;17.7;;
537;SDS011;254;48.524;8.926;2022-12-18T01:34:02;43.0;;;20.7;;
537;SDS011;254;48.524;8.926;2022-12-18T01:35:03;42.2;;;20.2;;
537;SDS011;254;48.524;8.926;2022-12-18T01:36:02;42.1;;;21.1;;
537;SDS011;254;48.524;8.926;2022-12-18T01:37:02;40.4;;;20.2;;
537;SDS011;254;48.524;8.926;2022-12-18T01:38:02;41.1;;;21.2;;
537;SDS011;254;48.524;8.926;2022-12-18T01:39:03;36.7;;;19.6;;
537;SDS011;254;48.524;8.926;2022-12-18T01:40:03;46.5;;;21.3;;
537;SDS011;254;48.524;8.926;2022-12-18T01:41:02;39.3;;;20.9;;
537;SDS011;254;48.524;8.926;2022-12-18T01:42:02;41.6;;;20.0;;
537;SDS011;254;48.524;8.926;2022-12-18T01:43:02;43.7;;;21.3;;
537;SDS011;254;48.524;8.926;2022-12-18T01:44:46;42.2;;;21.6;;
537;SDS011;254;48.524;8.926;2022-12-18T01:45:04;39.5;;;20.8;;
537;SDS011;254;48.524;8.926;2022-12-18T01:46:03;44.5;;;20.0;;
537;SDS011;254;48.524;8.926;2022-12-18T01:47:02;39.9;;;21.7;;
537;SDS011;254;48.524;8.926;2022-12-18T01:48:02;39.4;;;20.7;;
537;SDS011;254;48.524;8.926;2022-12-18T01:49:02;40.5;;;21.1;;
537;SDS011;254;48.524;8.926;2022-12-18T01:50:04;39.8;;;21.7;;
537;SDS011;254;48.524;8.926;2022-12-18T01:51:03;34.9;;;20.6;;
537;SDS011;254;48.524;8.926;2022-12-18T01:52:02;43.4;;;23.2;;
537;SDS011;254;48.524;8.926;2022-12-18T01:53:03;40.4;;;18.8;;
537;SDS011;254;48.524;8.926;2022-12-18T01:54:02;39.7;;;20.7;;
537;SDS011;254;48.524;8.926;2022-12-18T01:55:03;42.4;;;22.9;;
537;SDS011;254;48.524;8.926;2022-12-18T01:56:03;41.9;;;21.7;;
537;SDS011;254;48.524;8.926;2022-12-18T01:57:02;43.7;;;20.8;;
537;SDS011;254;48.524;8.926;2022-12-18T01:58:02;39.5;;;21.1;;
537;SDS011;254;48.524;8.926;2022-12-18T01:59:03;35.9;;;20.3;;
537;SDS011;254;48.524;8.926;2022-12-18T02:00:04;36.4;;;20.8;;
537;SDS011;254;48.524;8.926;2022-12-18T02:01:02;39.5;;;19.8;;
537;SDS011;254;48.524;8.926;2022-12-18T02:02:02;37.2;;;19.9;;
537;SDS011;254;48.524;8.926;2022-12-18T02:03:02;36.6;;;19.4;;
537;SDS011;254;48.524;8.926;2022-12-18T02:04:15;36.4;;;19.3;;
537;SDS011;254;48.524;8.926;2022-12-18T02:05:02;34.2;;;18.7;;
537;SDS011;254;48.524;8.926;2022-12-18T02:06:05;35.1;;;19.3;;
537;SDS011;254;48.524;8.926;2022-12-18T02:07:03;38.5;;;20.5;;
537;SDS011;254;48.524;8.926;2022-12-18T02:08:05;32.3;;;19.6;;
537;SDS011;254;48.524;8.926;2022-12-18T02:09:05;33.8;;;19.1;;
537;SDS011;254;48.524;8.926;2022-12-18T02:10:03;36.9;;;19.9;;
537;SDS011;254;48.524;8.926;2022-12-18T02:11:04;32.8;;;18.7;;
537;SDS011;254;48.524;8.926;2022-12-18T02:12:04;34.6;;;18.9;;
537;SDS011;254;48.524;8.926;2022-12-18T02:13:03;32.9;;;19.8;;
537;SDS011;254;48.524;8.926;2022-12-18T02:14:06;38.3;;;21.4;;
537;SDS011;254;48.524;8.926;2022-12-18T02:15:05;43.9;;;20.9;;
537;SDS011;254;48.524;8.926;2022-12-18T02:16:03;33.7;;;18.6;;
537;SDS011;254;48.524;8.926;2022-12-18T02:17:03;33.1;;;18.2;;
537;SDS011;254;48.524;8.926;2022-12-18T02:18:04;33.6;;;17.9;;
537;SDS011;254;48.524;8.926;2022-12-18T02:19:03;31.9;;;18.2;;
537;SDS011;254;48.524;8.926;2022-12-18T02:20:05;34.9;;;18.5;;
537;SDS011;254;48.524;8.926;2022-12-18T02:21:04;33.6;;;19.2;;
537;SDS011;254;48.524;8.926;2022-12-18T02:22:06;36.0;;;17.6;;
537;SDS011;254;48.524;8.926;2022-12-18T02:23:05;32.6;;;18.7;;
537;SDS011;254;48.524;8.926;2022-12-18T02:24:04;30.3;;;18.4;;
537;SDS011;254;48.524;8.926;2022-12-18T02:25:06;35.4;;;18.6;;
537;SDS011;254;48.524;8.926;2022-12-18T02:26:05;31.3;;;17.4;;
537;SDS011;254;48.524;8.926;2022-12-18T02:27:03;30.6;;;17.0;;
537;SDS011;254;48.524;8.926;2022-12-18T02:28:02;34.2;;;19.2;;
537;SDS011;254;48.524;8.926;2022-12-18T02:29:02;36.1;;;20.2;;
537;SDS011;254;48.524;8.926;2022-12-18T02:30:02;40.0;;;20.5;;
537;SDS011;254;48.524;8.926;2022-12-18T02:31:03;37.2;;;17.6;;
537;SDS011;254;48.524;8.926;2022-12-18T02:32:02;30.5;;;16.9;;
537;SDS011;254;48.524;8.926;2022-12-18T02:33:02;36.2;;;18.9;;
537;SDS011;254;48.524;8.926;2022-12-18T02:34:03;35.6;;;18.6;;
537;SDS011;254;48.524;8.926;2022-12-18T02:35:04;33.2;;;18.7;;
537;SDS011;254;48.524;8.926;2022-12-18T02:36:03;31.2;;;17.8;;
537;SDS011;254;48.524;8.926;2022-12-18T02:37:03;35.3;;;17.2;;
537;SDS011;254;48.524;8.926;2022-12-18T02:38:03;31.2;;;17.5;;
537;SDS011;254;48.524;8.926;2022-12-18T02:39:02;34.3;;;18.9;;
537;SDS011;254;48.524;8.926;2022-12-18T02:40:02;36.8;;;20.4;;
537;SDS011;254;48.524;8.926;2022-12-18T02:41:02;34.1;;;19.7;;
537;SDS011;254;48.524;8.926;2022-12-18T02:42:02;40.9;;;20.2;;
537;SDS011;254;48.524;8.926;2022-12-18T02:43:03;36.6;;;19.8;;
537;SDS011;254;48.524;8.926;2022-12-18T02:44:06;41.9;;;19.9;;
537;SDS011;254;48.524;8.926;2022-12-18T02:45:03;39.9;;;19.7;;
537;SDS011;254;48.524;8.926;2022-12-18T02:46:20;39.0;;;20.0;;
537;SDS011;254;48.524;8.926;2022-12-18T02:47:02;42.0;;;20.3;;
537;SDS011;254;48.524;8.926;2022-12-18T02:48:02;36.9;;;18.8;;
537;SDS011;254;48.524;8.926;2022-12-18T02:49:04;36.5;;;18.3;;
537;SDS011;254;48.524;8.926;2022-12-18T02:50:05;37.3;;;19.0;;
537;SDS011;254;48.524;8.926;2022-12-18T02:51:03;38.4;;;18.3;;
537;SDS011;254;48.524;8.926;2022-12-18T02:52:05;35.3;;;18.9;;
537;SDS011;254;48.524;8.926;2022-12-18T02:53:04;38.9;;;18.0;;
537;SDS011;254;48.524;8.926;2022-12-18T02:54:04;37.2;;;18.0;;
537;SDS011;254;48.524;8.926;2022-12-18T02:55:06;40.3;;;21.2;;
537;SDS011;254;48.524;8.926;2022-12-18T02:56:03;40.0;;;19.6;;
537;SDS011;254;48.524;8.926;2022-12-18T02:57:03;44.3;;;20.6;;
537;SDS011;254;48.524;8.926;2022-12-18T02:58:03;41.5;;;21.1;;
537;SDS011;254;48.524;8.926;2022-12-18T02:59:04;40.3;;;20.2;;
537;SDS011;254;48.524;8.926;2022-12-18T03:00:04;39.4;;;19.4;;
537;SDS011;254;48.524;8.926;2022-12-18T03:01:03;38.6;;;19.2;;
537;SDS011;254;48.524;8.926;2022-12-18T03:02:03;32.7;;;18.1;;
537;SDS011;254;48.524;8.926;2022-12-18T03:03:04;37.9;;;19.4;;
537;SDS011;254;48.524;8.926;2022-12-18T03:04:04;41.8;;;20.6;;
537;SDS011;254;48.524;8.926;2022-12-18T03:05:04;45.1;;;20.1;;
537;SDS011;254;48.524;8.926;2022-12-18T03:06:04;39.7;;;21.3;;
537;SDS011;254;48.524;8.926;2022-12-18T03:07:02;41.7;;;21.7;;
537;SDS011;254;48.524;8.926;2022-12-18T03:08:03;49.0;;;22.0;;
537;SDS011;254;48.524;8.926;2022-12-18T03:09:04;47.2;;;21.9;;
537;SDS011;254;48.524;8.926;2022-12-18T03:10:02;45.3;;;21.3;;
537;SDS011;254;48.524;8.926;2022-12-18T03:11:03;45.1;;;19.5;;
537;SDS011;254;48.524;8.926;2022-12-18T03:12:04;46.7;;;20.8;;
537;SDS011;254;48.524;8.926;2022-12-18T03:13:04;41.3;;;20.3;;
537;SDS011;254;48.524;8.926;2022-12-18T03:14:02;43.3;;;22.1;;
537;SDS011;254;48.524;8.926;2022-12-18T03:15:02;37.1;;;20.1;;
537;SDS011;254;48.524;8.926;2022-12-18T03:16:03;39.7;;;18.8;;
537;SDS011;254;48.524;8.926;2022-12-18T03:17:03;45.9;;;19.3;;
537;SDS011;254;48.524;8.926;2022-12-18T03:18:04;35.9;;;19.0;;
537;SDS011;254;48.524;8.926;2022-12-18T03:19:04;38.6;;;20.0;;
537;SDS011;254;48.524;8.926;2022-12-18T03:20:03;37.8;;;18.8;;
537;SDS011;254;48.524;8.926;2022-12-18T03:21:04;34.8;;;17.6;;
537;SDS011;254;48.524;8.926;2022-12-18T03:22:02;40.2;;;18.4;;
537;SDS011;254;48.524;8.926;2022-12-18T03:23:04;36.8;;;17.8;;
537;SDS011;254;48.524;8.926;2022-12-18T03:24:03;37.8;;;18.6;;
537;SDS011;254;48.524;8.926;2022-12-18T03:25:03;41.4;;;19.5;;
537;SDS011;254;48.524;8.926;2022-12-18T03:26:05;35.2;;;18.1;;
537;SDS011;254;48.524;8.926;2022-12-18T03:27:02;35.2;;;19.2;;
537;SDS011;254;48.524;8.926;2022-12-18T03:28:02;40.5;;;19.4;;
537;SDS011;254;48.524;8.926;2022-12-18T03:29:03;38.5;;;17.3;;
537;SDS011;254;48.524;8.926;2022-12-18T03:30:03;40.9;;;18.7;;
537;SDS011;254;48.524;8.926;2022-12-18T03:31:02;41.0;;;19.1;;
537;SDS011;254;48.524;8.926;2022-12-18T03:32:04;39.9;;;18.2;;
537;SDS011;254;48.524;8.926;2022-12-18T03:33:03;37.8;;;19.3;;
537;SDS011;254;48.524;8.926;2022-12-18T03:34:04;36.7;;;18.2;;
537;SDS011;254;48.524;8.926;2022-12-18T03:35:03;33.2;;;18.8;;
537;SDS011;254;48.524;8.926;2022-12-18T03:36:03;41.9;;;19.6;;
537;SDS011;254;48.524;8.926;2022-12-18T03:37:03;45.2;;;21.8;;
537;SDS011;254;48.524;8.926;2022-12-18T03:38:03;47.4;;;20.3;;
537;SDS011;254;48.524;8.926;2022-12-18T03:39:02;36.0;;;19.7;;
537;SDS011;254;48.524;8.926;2022-12-18T03:40:02;47.2;;;21.2;;
537;SDS011;254;48.524;8.926;2022-12-18T03:41:03;42.6;;;19.3;;
537;SDS011;254;48.524;8.926;2022-12-18T03:42:03;47.1;;;19.8;;
537;SDS011;254;48.524;8.926;2022-12-18T03:43:03;44.9;;;20.1;;
537;SDS011;254;48.524;8.926;2022-12-18T03:44:03;46.9;;;19.7;;
537;SDS011;254;48.524;8.926;2022-12-18T03:45:04;43.6;;;19.3;;
537;SDS011;254;48.524;8.926;2022-12-18T03:46:04;39.2;;;18.1;;
537;SDS011;254;48.524;8.926;2022-12-18T03:47:04;35.1;;;16.5;;
537;SDS011;254;48.524;8.926;2022-12-18T03:48:03;43.3;;;16.8;;
537;SDS011;254;48.524;8.926;2022-12-18T03:49:04;40.6;;;18.8;;
537;SDS011;254;48.524;8.926;2022-12-18T03:50:03;39.8;;;20.4;;
537;SDS011;254;48.524;8.926;2022-12-18T03:51:05;48.5;;;20.1;;
537;SDS011;254;48.524;8.926;2022-12-18T03:52:04;46.2;;;18.8;;
537;SDS011;254;48.524;8.926;2022-12-18T03:53:06;49.0;;;20.2;;
537;SDS011;254;48.524;8.926;2022-12-18T03:54:02;45.5;;;18.7;;
537;SDS011;254;48.524;8.926;2022-12-18T03:55:02;44.9;;;21.7;;
537;SDS011;254;48.524;8.926;2022-12-18T03:56:02;45.4;;;20.2;;
537;SDS011;254;48.524;8.926;2022-12-18T03:57:04;39.5;;;18.0;;
537;SDS011;254;48.524;8.926;2022-12-18T03:58:02;45.3;;;18.0;;
537;SDS011;254;48.524;8.926;2022-12-18T03:59:02;39.6;;;17.8;;
537;SDS011;254;48.524;8.926;2022-12-18T04:00:04;35.9;;;18.1;;
537;SDS011;254;48.524;8.926;2022-12-18T04:01:05;38.6;;;17.8;;
537;SDS011;254;48.524;8.926;2022-12-18T04:02:03;36.6;;;17.7;;
537;SDS011;254;48.524;8.926;2022-12-18T04:03:02;36.2;;;17.0;;
537;SDS011;254;48.524;8.926;2022-12-18T04:04:03;50.3;;;19.5;;
537;SDS011;254;48.524;8.926;2022-12-18T04:05:02;41.1;;;19.4;;
537;SDS011;254;48.524;8.926;2022-12-18T04:06:02;37.7;;;16.5;;
537;SDS011;254;48.524;8.926;2022-12-18T04:07:02;36.6;;;17.9;;
537;SDS011;254;48.524;8.926;2022-12-18T04:08:02;44.3;;;18.6;;
537;SDS011;254;48.524;8.926;2022-12-18T04:09:02;36.4;;;18.1;;
537;SDS011;254;48.524;8.926;2022-12-18T04:10:03;37.3;;;18.1;;
537;SDS011;254;48.524;8.926;2022-12-18T04:11:02;31.9;;;16.6;;
537;SDS011;254;48.524;8.926;2022-12-18T04:12:03;33.6;;;17.1;;
537;SDS011;254;48.524;8.926;2022-12-18T04:13:02;37.8;;;18.9;;
537;SDS011;254;48.524;8.926;2022-12-18T04:14:03;36.3;;;17.0;;
537;SDS011;254;48.524;8.926;2022-12-18T04:15:03;37.7;;;18.6;;
537;SDS011;254;48.524;8.926;2022-12-18T04:16:02;33.5;;;15.6;;
537;SDS011;254;48.524;8.926;2022-12-18T04:17:03;41.7;;;17.8;;
537;SDS011;254;48.524;8.926;2022-12-18T04:18:04;45.3;;;19.6;;
537;SDS011;254;48.524;8.926;2022-12-18T04:19:03;50.1;;;20.9;;
537;SDS011;254;48.524;8.926;2022-12-18T04:20:02;43.3;;;19.4;;
537;SDS011;254;48.524;8.926;2022-12-18T04:21:03;34.0;;;15.9;;
537;SDS011;254;48.524;8.926;2022-12-18T04:22:01;45.2;;;19.1;;
537;SDS011;254;48.524;8.926;2022-12-18T04:23:02;39.6;;;18.6;;
537;SDS011;254;48.524;8.926;2022-12-18T04:24:02;37.7;;;15.9;;
537;SDS011;254;48.524;8.926;2022-12-18T04:25:02;45.1;;;20.8;;
537;SDS011;254;48.524;8.926;2022-12-18T04:26:04;41.9;;;21.8;;
537;SDS011;254;48.524;8.926;2022-12-18T04:27:02;54.2;;;22.7;;
537;SDS011;254;48.524;8.926;2022-12-18T04:28:03;48.2;;;22.1;;
537;SDS011;254;48.524;8.926;2022-12-18T04:29:02;45.6;;;20.9;;
537;SDS011;254;48.524;8.926;2022-12-18T04:30:02;48.4;;;21.6;;
537;SDS011;254;48.524;8.926;2022-12-18T04:31:01;54.8;;;22.6;;
537;SDS011;254;48.524;8.926;2022-12-18T04:32:02;47.6;;;21.6;;
537;SDS011;254;48.524;8.926;2022-12-18T04:33:05;48.0;;;22.9;;
537;SDS011;254;48.524;8.926;2022-12-18T04:34:01;48.3;;;22.0;;
537;SDS011;254;48.524;8.926;2022-12-18T04:35:02;45.9;;;21.6;;
537;SDS011;254;48.524;8.926;2022-12-18T04:36:03;50.1;;;23.9;;
537;SDS011;254;48.524;8.926;2022-12-18T04:37:02;51.2;;;22.5;;
537;SDS011;254;48.524;8.926;2022-12-18T04:38:03;46.8;;;22.3;;
537;SDS011;254;48.524;8.926;2022-12-18T04:39:01;48.2;;;22.3;;
537;SDS011;254;48.524;8.926;2022-12-18T04:40:02;43.2;;;22.0;;
537;SDS011;254;48.524;8.926;2022-12-18T04:41:01;42.8;;;20.5;;
537;SDS011;254;48.524;8.926;2022-12-18T04:42:02;48.8;;;21.6;;
537;SDS011;254;48.524;8.926;2022-12-18T04:43:02;47.8;;;21.4;;
537;SDS011;254;48.524;8.926;2022-12-18T04:44:02;51.1;;;21.6;;
537;SDS011;254;48.524;8.926;2022-12-18T04:45:02;50.2;;;20.9;;
537;SDS011;254;48.524;8.926;2022-12-18T04:46:03;44.7;;;20.6;;
537;SDS011;254;48.524;8.926;2022-12-18T04:47:03;43.5;;;20.7;;
537;SDS011;254;48.524;8.926;2022-12-18T04:48:02;45.7;;;21.2;;
537;SDS011;254;48.524;8.926;2022-12-18T04:49:02;38.0;;;21.0;;
537;SDS011;254;48.524;8.926;2022-12-18T04:50:03;48.0;;;20.4;;
537;SDS011;254;48.524;8.926;2022-12-18T04:51:02;42.1;;;20.5;;
537;SDS011;254;48.524;8.926;2022-12-18T04:52:02;48.7;;;22.1;;
537;SDS011;254;48.524;8.926;2022-12-18T04:53:02;44.8;;;22.5;;
537;SDS011;254;48.524;8.926;2022-12-18T04:54:03;43.1;;;20.8;;
537;SDS011;254;48.524;8.926;2022-12-18T04:55:02;43.2;;;21.4;;
537;SDS011;254;48.524;8.926;2022-12-18T04:56:03;50.8;;;22.2;;
537;SDS011;254;48.524;8.926;2022-12-18T04:57:02;45.9;;;22.2;;
537;SDS011;254;48.524;8.926;2022-12-18T04:58:02;41.9;;;20.0;;
537;SDS011;254;48.524;8.926;2022-12-18T04:59:02;47.7;;;21.2;;
537;SDS011;254;48.524;8.926;2022-12-18T05:00:02;39.5;;;19.7;;
537;SDS011;254;48.524;8.926;2022-12-18T05:01:02;43.9;;;22.1;;
537;SDS011;254;48.524;8.926;2022-12-18T05:02:02;39.8;;;21.4;;
537;SDS011;254;48.524;8.926;2022-12-18T05:03:02;40.4;;;20.4;;
537;SDS011;254;48.524;8.926;2022-12-18T05:04:03;45.0;;;20.9;;
537;SDS011;254;48.524;8.926;2022-12-18T05:05:02;39.5;;;19.8;;
537;SDS011;254;48.524;8.926;2022-12-18T05:06:02;40.1;;;19.9;;
537;SDS011;254;48.524;8.926;2022-12-18T05:07:02;37.4;;;19.9;;
537;SDS011;254;48.524;8.926;2022-12-18T05:08:02;36.3;;;20.5;;
537;SDS011;254;48.524;8.926;2022-12-18T05:09:03;43.6;;;21.4;;
537;SDS011;254;48.524;8.926;2022-12-18T05:10:02;39.3;;;19.7;;
537;SDS011;254;48.524;8.926;2022-12-18T05:11:03;36.1;;;20.6;;
537;SDS011;254;48.524;8.926;2022-12-18T05:12:03;39.1;;;20.5;;
537;SDS011;254;48.524;8.926;2022-12-18T05:13:02;38.3;;;20.5;;
537;SDS011;254;48.524;8.926;2022-12-18T05:14:03;37.4;;;19.9;;
537;SDS011;254;48.524;8.926;2022-12-18T05:15:02;41.9;;;20.3;;
537;SDS011;254;48.524;8.926;2022-12-18T05:16:03;40.9;;;19.9;;
537;SDS011;254;48.524;8.926;2022-12-18T05:17:02;34.3;;;17.9;;
537;SDS011;254;48.524;8.926;2022-12-18T05:18:02;36.7;;;18.4;;
537;SDS011;254;48.524;8.926;2022-12-18T05:19:03;38.5;;;19.3;;
537;SDS011;254;48.524;8.926;2022-12-18T05:20:02;35.4;;;18.8;;
537;SDS011;254;48.524;8.926;2022-12-18T05:21:03;33.5;;;18.2;;
537;SDS011;254;48.524;8.926;2022-12-18T05:22:01;38.2;;;19.2;;
537;SDS011;254;48.524;8.926;2022-12-18T05:23:02;33.7;;;18.1;;
537;SDS011;254;48.524;8.926;2022-12-18T05:24:03;32.1;;;18.2;;
537;SDS011;254;48.524;8.926;2022-12-18T05:25:02;33.5;;;18.3;;
537;SDS011;254;48.524;8.926;2022-12-18T05:26:03;33.0;;;18.0;;
537;SDS011;254;48.524;8.926;2022-12-18T05:27:01;32.2;;;17.8;;
537;SDS011;254;48.524;8.926;2022-12-18T05:28:02;35.5;;;18.2;;
537;SDS011;254;48.524;8.926;2022-12-18T05:29:03;38.7;;;18.5;;
537;SDS011;254;48.524;8.926;2022-12-18T05:30:02;37.9;;;18.7;;
537;SDS011;254;48.524;8.926;2022-12-18T05:31:02;31.9;;;17.6;;
537;SDS011;254;48.524;8.926;2022-12-18T05:32:02;32.2;;;17.7;;
537;SDS011;254;48.524;8.926;2022-12-18T05:33:03;31.4;;;16.8;;
537;SDS011;254;48.524;8.926;2022-12-18T05:34:01;36.8;;;18.6;;
537;SDS011;254;48.524;8.926;2022-12-18T05:35:02;34.8;;;17.8;;
537;SDS011;254;48.524;8.926;2022-12-18T05:36:03;39.2;;;18.5;;
537;SDS011;254;48.524;8.926;2022-12-18T05:37:02;33.9;;;18.4;;
537;SDS011;254;48.524;8.926;2022-12-18T05:38:03;36.5;;;17.6;;
537;SDS011;254;48.524;8.926;2022-12-18T05:39:02;32.5;;;17.4;;
537;SDS011;254;48.524;8.926;2022-12-18T05:40:02;35.8;;;18.7;;
537;SDS011;254;48.524;8.926;2022-12-18T05:41:03;36.3;;;17.9;;
537;SDS011;254;48.524;8.926;2022-12-18T05:42:02;38.4;;;18.2;;
537;SDS011;254;48.524;8.926;2022-12-18T05:43:05;34.8;;;18.7;;
537;SDS011;254;48.524;8.926;2022-12-18T05:44:02;35.1;;;19.2;;
537;SDS011;254;48.524;8.926;2022-12-18T05:45:03;37.1;;;19.1;;
537;SDS011;254;48.524;8.926;2022-12-18T05:46:03;26.5;;;16.6;;
537;SDS011;254;48.524;8.926;2022-12-18T05:47:04;28.9;;;17.6;;
537;SDS011;254;48.524;8.926;2022-12-18T05:48:03;31.0;;;17.8;;
537;SDS011;254;48.524;8.926;2022-12-18T05:49:02;30.3;;;18.0;;
537;SDS011;254;48.524;8.926;2022-12-18T05:50:02;30.1;;;16.6;;
537;SDS011;254;48.524;8.926;2022-12-18T05:51:03;34.2;;;18.3;;
537;SDS011;254;48.524;8.926;2022-12-18T05:52:02;32.1;;;18.0;;
537;SDS011;254;48.524;8.926;2022-12-18T05:53:02;30.8;;;17.0;;
537;SDS011;254;48.524;8.926;2022-12-18T05:54:03;31.0;;;17.2;;
537;SDS011;254;48.524;8.926;2022-12-18T05:55:02;33.5;;;17.6;;
537;SDS011;254;48.524;8.926;2022-12-18T05:56:03;35.9;;;18.2;;
537;SDS011;254;48.524;8.926;2022-12-18T05:57:02;31.2;;;16.7;;
537;SDS011;254;48.524;8.926;2022-12-18T05:58:03;30.7;;;16.0;;
537;SDS011;254;48.524;8.926;2022-12-18T05:59:03;32.4;;;16.9;;
537;SDS011;254;48.524;8.926;2022-12-18T06:00:02;31.1;;;17.2;;
537;SDS011;254;48.524;8.926;2022-12-18T06:01:06;29.6;;;15.6;;
537;SDS011;254;48.524;8.926;2022-12-18T06:02:02;28.9;;;15.6;;
537;SDS011;254;48.524;8.926;2022-12-18T06:03:02;29.8;;;15.7;;
537;SDS011;254;48.524;8.926;2022-12-18T06:04:03;30.9;;;17.0;;
537;SDS011;254;48.524;8.926;2022-12-18T06:05:03;29.7;;;16.6;;
537;SDS011;254;48.524;8.926;2022-12-18T06:06:02;30.1;;;16.2;;
537;SDS011;254;48.524;8.926;2022-12-18T06:07:02;29.5;;;17.0;;
537;SDS011;254;48.524;8.926;2022-12-18T06:08:02;32.2;;;16.1;;
537;SDS011;254;48.524;8.926;2022-12-18T06:09:03;29.9;;;16.6;;
537;SDS011;254;48.524;8.926;2022-12-18T06:10:02;29.2;;;16.6;;
537;SDS011;254;48.524;8.926;2022-12-18T06:11:02;31.3;;;16.8;;
537;SDS011;254;48.524;8.926;2022-12-18T06:12:02;29.5;;;16.2;;
537;SDS011;254;48.524;8.926;2022-12-18T06:13:02;32.5;;;18.5;;
537;SDS011;254;48.524;8.926;2022-12-18T06:14:03;33.1;;;16.5;;
537;SDS011;254;48.524;8.926;2022-12-18T06:15:02;33.1;;;18.3;;
537;SDS011;254;48.524;8.926;2022-12-18T06:16:02;30.9;;;17.1;;
537;SDS011;254;48.524;8.926;2022-12-18T06:17:02;29.1;;;16.9;;
537;SDS011;254;48.524;8.926;2022-12-18T06:18:03;30.2;;;17.1;;
537;SDS011;254;48.524;8.926;2022-12-18T06:19:04;28.9;;;16.8;;
537;SDS011;254;48.524;8.926;2022-12-18T06:20:02;29.8;;;16.8;;
537;SDS011;254;48.524;8.926;2022-12-18T06:21:02;31.8;;;16.4;;
537;SDS011;254;48.524;8.926;2022-12-18T06:22:02;35.1;;;17.4;;
537;SDS011;254;48.524;8.926;2022-12-18T06:23:02;33.8;;;17.3;;
537;SDS011;254;48.524;8.926;2022-12-18T06:24:02;32.3;;;17.1;;
537;SDS011;254;48.524;8.926;2022-12-18T06:25:02;33.3;;;17.3;;